createdAt,value
2022-12-29T00:01:36.356Z,100508.47
2022-12-29T00:04:38.795Z,100508.47
2022-12-29T00:07:40.849Z,100500.63
2022-12-29T00:10:43.068Z,100503.16
2022-12-29T00:14:03.577Z,100505.31
2022-12-29T00:17:05.770Z,100498.03
2022-12-29T00:20:26.860Z,100490.63
2022-12-29T00:23:47.917Z,100485.94
2022-12-29T00:27:16.492Z,100478.09
2022-12-29T00:30:41.652Z,100485.84
2022-12-29T00:34:02.322Z,100486.62
2022-12-29T00:37:04.399Z,100484.91
2022-12-29T00:40:25.735Z,100477.66
2022-12-29T00:43:46.242Z,100472.44
2022-12-29T00:46:48.661Z,100461.13
2022-12-29T00:49:50.789Z,100456.16
2022-12-29T00:52:52.870Z,100459.00
2022-12-29T00:55:54.960Z,100453.94
2022-12-29T00:58:57.029Z,100447.84
2022-12-29T01:01:59.551Z,100445.44
2022-12-29T01:05:01.805Z,100447.16
2022-12-29T01:08:03.999Z,100442.81
2022-12-29T01:11:09.040Z,100433.44
2022-12-29T01:14:11.120Z,100439.00
2022-12-29T01:17:13.167Z,100446.38
2022-12-29T01:20:16.416Z,100437.94
2022-12-29T01:23:18.481Z,100441.69
2022-12-29T01:26:20.555Z,100435.78
2022-12-29T01:29:23.055Z,100433.09
2022-12-29T01:32:25.272Z,100425.25
2022-12-29T01:35:27.411Z,100434.78
2022-12-29T01:38:29.537Z,100432.22
2022-12-29T01:41:32.580Z,100424.50
2022-12-29T01:44:57.474Z,100425.34
2022-12-29T01:48:05.404Z,100419.56
2022-12-29T01:51:08.185Z,100411.03
2022-12-29T01:54:17.381Z,100421.47
2022-12-29T01:57:24.570Z,100418.09
2022-12-29T02:00:26.846Z,100415.47
2022-12-29T02:03:33.132Z,100422.53
2022-12-29T02:07:03.905Z,100417.47
2022-12-29T02:10:06.473Z,100426.22
2022-12-29T02:13:09.409Z,100423.66
2022-12-29T02:16:23.706Z,100426.34
2022-12-29T02:19:34.736Z,100410.72
2022-12-29T02:22:54.924Z,100415.16
2022-12-29T02:26:17.737Z,100405.63
2022-12-29T02:29:35.615Z,100403.00
2022-12-29T02:33:00.836Z,100390.78
2022-12-29T02:36:38.531Z,100378.47
2022-12-29T02:40:18.348Z,100383.44
2022-12-29T02:43:39.211Z,100384.12
2022-12-29T02:47:13.681Z,100381.47
2022-12-29T02:50:23.925Z,100385.00
2022-12-29T02:53:46.000Z,100371.84
2022-12-29T02:56:48.091Z,100378.59
2022-12-29T02:59:56.900Z,100369.69
2022-12-29T03:03:10.867Z,100367.94
2022-12-29T03:06:40.474Z,100368.94
2022-12-29T03:09:57.919Z,100350.81
2022-12-29T03:13:31.347Z,100349.94
2022-12-29T03:16:36.635Z,100355.19
2022-12-29T03:19:48.844Z,100344.53
2022-12-29T03:22:56.563Z,100342.66
2022-12-29T03:26:01.299Z,100334.81
2022-12-29T03:29:04.913Z,100332.88
2022-12-29T03:32:09.620Z,100324.81
2022-12-29T03:35:14.284Z,100322.97
2022-12-29T03:38:22.501Z,100328.25
2022-12-29T03:41:29.895Z,100326.66
2022-12-29T03:44:43.578Z,100320.00
2022-12-29T03:47:45.611Z,100320.06
2022-12-29T03:50:47.741Z,100322.78
2022-12-29T03:53:49.802Z,100325.31
2022-12-29T03:56:51.874Z,100320.62
2022-12-29T03:59:54.059Z,100312.19
2022-12-29T04:02:56.429Z,100304.34
2022-12-29T04:05:58.532Z,100317.72
2022-12-29T04:09:00.928Z,100299.03
2022-12-29T04:12:03.177Z,100303.59
2022-12-29T04:15:06.599Z,100308.66
2022-12-29T04:18:09.609Z,100309.59
2022-12-29T04:21:11.936Z,100315.19
2022-12-29T04:24:15.250Z,100319.00
2022-12-29T04:27:17.279Z,100329.75
2022-12-29T04:30:21.247Z,100327.22
2022-12-29T04:33:23.767Z,100326.38
2022-12-29T04:36:29.913Z,100323.78
2022-12-29T04:39:34.077Z,100323.00
2022-12-29T04:42:36.271Z,100320.41
2022-12-29T04:45:38.540Z,100331.06
2022-12-29T04:48:40.985Z,100330.56
2022-12-29T04:51:43.218Z,100342.13
2022-12-29T04:54:45.315Z,100336.22
2022-12-29T04:57:47.519Z,100332.91
2022-12-29T05:00:49.660Z,100330.53
2022-12-29T05:03:53.225Z,100339.47
2022-12-29T05:06:55.304Z,100343.09
2022-12-29T05:09:57.688Z,100336.94
2022-12-29T05:12:59.900Z,100340.56
2022-12-29T05:16:02.074Z,100337.12
2022-12-29T05:19:04.186Z,100332.06
2022-12-29T05:22:06.291Z,100333.91
2022-12-29T05:25:10.424Z,100336.59
2022-12-29T05:28:12.539Z,100333.13
2022-12-29T05:31:14.777Z,100341.56
2022-12-29T05:34:17.093Z,100338.72
2022-12-29T05:37:19.369Z,100328.22
2022-12-29T05:40:22.541Z,100332.50
2022-12-29T05:43:24.575Z,100336.94
2022-12-29T05:46:26.692Z,100343.78
2022-12-29T05:49:28.789Z,100347.16
2022-12-29T05:52:30.850Z,100338.22
2022-12-29T05:55:32.964Z,100333.84
2022-12-29T05:58:35.290Z,100330.22
2022-12-29T06:01:37.701Z,100319.75
2022-12-29T06:04:39.887Z,100326.50
2022-12-29T06:07:42.129Z,100323.88
2022-12-29T06:10:44.318Z,100331.41
2022-12-29T06:13:46.393Z,100335.03
2022-12-29T06:16:48.648Z,100335.94
2022-12-29T06:19:50.883Z,100346.44
2022-12-29T06:22:53.000Z,100349.03
2022-12-29T06:25:55.109Z,100347.31
2022-12-29T06:28:57.401Z,100350.13
2022-12-29T06:31:59.622Z,100343.19
2022-12-29T06:35:02.375Z,100366.03
2022-12-29T06:38:04.784Z,100366.31
2022-12-29T06:41:07.200Z,100368.22
2022-12-29T06:44:09.317Z,100371.00
2022-12-29T06:47:11.863Z,100376.25
2022-12-29T06:50:13.950Z,100379.06
2022-12-29T06:53:16.503Z,100385.31
2022-12-29T06:56:18.634Z,100387.22
2022-12-29T06:59:20.667Z,100390.06
2022-12-29T07:02:23.755Z,100388.09
2022-12-29T07:05:28.856Z,100384.31
2022-12-29T07:08:31.068Z,100388.28
2022-12-29T07:11:34.432Z,100386.44
2022-12-29T07:14:42.579Z,100382.91
2022-12-29T07:17:45.421Z,100381.91
2022-12-29T07:20:47.456Z,100377.59
2022-12-29T07:23:49.821Z,100383.56
2022-12-29T07:26:51.836Z,100378.28
2022-12-29T07:29:54.177Z,100374.56
2022-12-29T07:32:56.314Z,100377.72
2022-12-29T07:35:58.483Z,100368.03
2022-12-29T07:39:00.591Z,100373.75
2022-12-29T07:42:05.098Z,100374.31
2022-12-29T07:45:08.046Z,100367.72
2022-12-29T07:48:10.636Z,100370.78
2022-12-29T07:51:12.880Z,100353.06
2022-12-29T07:54:14.919Z,100357.81
2022-12-29T07:57:16.987Z,100359.31
2022-12-29T08:00:19.365Z,100369.50
2022-12-29T08:03:21.750Z,100363.13
2022-12-29T08:06:23.824Z,100358.63
2022-12-29T08:09:26.099Z,100357.75
2022-12-29T08:12:28.245Z,100353.47
2022-12-29T08:15:32.510Z,100357.78
2022-12-29T08:18:35.048Z,100359.09
2022-12-29T08:21:37.290Z,100346.69
2022-12-29T08:24:39.384Z,100339.91
2022-12-29T08:27:41.508Z,100350.09
2022-12-29T08:30:43.623Z,100349.72
2022-12-29T08:33:45.720Z,100353.50
2022-12-29T08:36:47.935Z,100351.31
2022-12-29T08:39:50.083Z,100351.75
2022-12-29T08:42:52.165Z,100346.56
2022-12-29T08:45:54.440Z,100350.88
2022-12-29T08:48:56.661Z,100344.97
2022-12-29T08:51:58.853Z,100349.25
2022-12-29T08:55:00.962Z,100347.38
2022-12-29T08:58:03.063Z,100338.22
2022-12-29T09:01:05.469Z,100337.66
2022-12-29T09:04:17.914Z,100335.72
2022-12-29T09:07:20.393Z,100336.34
2022-12-29T09:10:22.543Z,100336.78
2022-12-29T09:13:24.967Z,100341.63
2022-12-29T09:16:28.197Z,100339.59
2022-12-29T09:19:31.909Z,100330.47
2022-12-29T09:22:33.991Z,100331.75
2022-12-29T09:25:36.079Z,100338.53
2022-12-29T09:28:38.332Z,100333.00
2022-12-29T09:31:40.815Z,100324.31
2022-12-29T09:34:42.994Z,100323.84
2022-12-29T09:37:45.113Z,100316.78
2022-12-29T09:40:58.459Z,100316.94
2022-12-29T09:44:18.340Z,100320.94
2022-12-29T09:47:22.329Z,100330.06
2022-12-29T09:50:24.712Z,100314.87
2022-12-29T09:53:38.942Z,100313.19
2022-12-29T09:56:41.161Z,100322.63
2022-12-29T09:59:45.260Z,100324.78
2022-12-29T10:03:03.906Z,100318.37
2022-12-29T10:06:18.987Z,100325.19
2022-12-29T10:09:32.867Z,100315.88
2022-12-29T10:12:43.878Z,100308.37
2022-12-29T10:16:03.912Z,100295.94
2022-12-29T10:19:23.051Z,100288.88
2022-12-29T10:22:58.173Z,100297.41
2022-12-29T10:26:02.491Z,100300.25
2022-12-29T10:29:05.927Z,100283.78
2022-12-29T10:32:18.667Z,100279.59
2022-12-29T10:35:30.992Z,100279.62
2022-12-29T10:38:47.779Z,100283.25
2022-12-29T10:41:54.341Z,100287.34
2022-12-29T10:44:57.644Z,100278.44
2022-12-29T10:48:06.238Z,100273.63
2022-12-29T10:51:09.774Z,100273.63
2022-12-29T10:54:18.261Z,100273.97
2022-12-29T10:57:47.064Z,100274.66
2022-12-29T11:00:53.373Z,100266.97
2022-12-29T11:04:20.392Z,100270.91
2022-12-29T11:07:27.061Z,100264.50
2022-12-29T11:10:40.854Z,100255.41
2022-12-29T11:13:50.170Z,100260.44
2022-12-29T11:17:03.785Z,100254.09
2022-12-29T11:20:39.541Z,100250.37
2022-12-29T11:23:43.938Z,100253.72
2022-12-29T11:26:46.213Z,100249.25
2022-12-29T11:29:48.281Z,100239.69
2022-12-29T11:32:55.132Z,100242.97
2022-12-29T11:36:14.543Z,100232.81
2022-12-29T11:39:34.225Z,100230.37
2022-12-29T11:42:40.870Z,100240.47
2022-12-29T11:45:47.948Z,100234.63
2022-12-29T11:48:50.445Z,100235.19
2022-12-29T11:51:56.348Z,100227.09
2022-12-29T11:54:59.084Z,100220.41
2022-12-29T11:58:05.338Z,100227.72
2022-12-29T12:01:16.801Z,100231.34
2022-12-29T12:04:22.514Z,100225.28
2022-12-29T12:07:46.839Z,100221.00
2022-12-29T12:10:59.972Z,100237.56
2022-12-29T12:14:13.484Z,100224.97
2022-12-29T12:17:24.980Z,100223.66
2022-12-29T12:20:34.262Z,100220.50
2022-12-29T12:23:45.718Z,100225.25
2022-12-29T12:26:59.965Z,100220.56
2022-12-29T12:30:22.186Z,100225.81
2022-12-29T12:33:38.399Z,100217.41
2022-12-29T12:37:34.500Z,100218.72
2022-12-29T12:41:05.027Z,100221.16
2022-12-29T12:44:28.363Z,100211.06
2022-12-29T12:47:45.477Z,100212.66
2022-12-29T12:51:00.846Z,100194.28
2022-12-29T12:54:29.908Z,100197.25
2022-12-29T12:57:54.875Z,100205.44
2022-12-29T13:01:23.021Z,100194.59
2022-12-29T13:05:03.118Z,100212.25
2022-12-29T13:08:08.383Z,100212.47
2022-12-29T13:11:13.221Z,100214.16
2022-12-29T13:14:41.936Z,100214.69
2022-12-29T13:17:53.625Z,100208.00
2022-12-29T13:21:07.483Z,100219.47
2022-12-29T13:24:30.909Z,100214.38
2022-12-29T13:27:45.663Z,100209.81
2022-12-29T13:31:19.315Z,100210.47
2022-12-29T13:34:30.748Z,100213.97
2022-12-29T13:37:37.367Z,100223.53
2022-12-29T13:40:47.205Z,100211.66
2022-12-29T13:43:52.090Z,100214.22
2022-12-29T13:46:56.308Z,100215.28
2022-12-29T13:50:00.946Z,100201.69
2022-12-29T13:53:08.873Z,100218.50
2022-12-29T13:56:30.860Z,100222.75
2022-12-29T13:59:43.755Z,100220.19
2022-12-29T14:03:02.910Z,100227.28
2022-12-29T14:06:21.055Z,100230.06
2022-12-29T14:09:52.087Z,100233.37
2022-12-29T14:13:04.518Z,100232.41
2022-12-29T14:16:07.926Z,100231.78
2022-12-29T14:19:27.709Z,100241.00
2022-12-29T14:22:33.200Z,100236.53
2022-12-29T14:25:57.519Z,100239.50
2022-12-29T14:29:18.531Z,100233.78
2022-12-29T14:32:26.714Z,100236.09
2022-12-29T14:35:44.645Z,100237.47
2022-12-29T14:38:48.348Z,100233.34
2022-12-29T14:42:01.056Z,100227.91
2022-12-29T14:45:09.352Z,100240.31
2022-12-29T14:48:33.438Z,100242.72
2022-12-29T14:51:37.854Z,100241.44
2022-12-29T14:54:46.786Z,100244.28
2022-12-29T14:57:59.446Z,100237.34
2022-12-29T15:01:02.287Z,100244.31
2022-12-29T15:04:19.451Z,100249.06
2022-12-29T15:07:22.017Z,100249.22
2022-12-29T15:10:26.669Z,100243.84
2022-12-29T15:13:38.551Z,100253.91
2022-12-29T15:16:40.643Z,100255.72
2022-12-29T15:19:42.698Z,100254.03
2022-12-29T15:22:46.351Z,100253.06
2022-12-29T15:26:22.135Z,100256.41
2022-12-29T15:29:42.064Z,100253.63
2022-12-29T15:32:45.371Z,100257.09
2022-12-29T15:35:52.712Z,100254.22
2022-12-29T15:38:55.208Z,100255.31
2022-12-29T15:42:05.315Z,100247.84
2022-12-29T15:45:11.984Z,100254.34
2022-12-29T15:48:20.723Z,100249.34
2022-12-29T15:51:38.898Z,100257.94
2022-12-29T15:54:44.103Z,100251.97
2022-12-29T15:57:46.239Z,100257.44
2022-12-29T16:00:54.737Z,100250.72
2022-12-29T16:04:01.243Z,100251.91
2022-12-29T16:07:24.319Z,100250.75
2022-12-29T16:10:43.552Z,100252.53
2022-12-29T16:13:47.093Z,100256.22
2022-12-29T16:16:52.221Z,100250.63
2022-12-29T16:20:01.503Z,100248.41
2022-12-29T16:26:24.727Z,100241.97
2022-12-29T16:29:31.743Z,100242.28
2022-12-29T16:32:37.088Z,100243.63
2022-12-29T16:35:42.303Z,100239.31
2022-12-29T16:38:47.909Z,100251.81
2022-12-29T16:41:52.552Z,100248.56
2022-12-29T16:45:24.386Z,100248.56
2022-12-29T16:48:32.700Z,100253.25
2022-12-29T16:51:39.371Z,100259.78
2022-12-29T16:54:43.545Z,100253.66
2022-12-29T16:57:50.163Z,100258.31
2022-12-29T17:00:57.704Z,100250.41
2022-12-29T17:04:11.306Z,100242.97
2022-12-29T17:07:27.198Z,100244.19
2022-12-29T17:10:50.018Z,100236.75
2022-12-29T17:13:53.151Z,100240.50
2022-12-29T17:16:55.272Z,100240.81
2022-12-29T17:20:03.669Z,100245.78
2022-12-29T17:23:17.513Z,100238.72
2022-12-29T17:26:24.804Z,100242.78
2022-12-29T17:29:34.855Z,100253.34
2022-12-29T17:32:37.014Z,100247.00
2022-12-29T17:35:39.436Z,100253.63
2022-12-29T17:38:41.724Z,100260.75
2022-12-29T17:41:44.011Z,100260.28
2022-12-29T17:44:46.095Z,100257.75
2022-12-29T17:47:48.415Z,100244.44
2022-12-29T17:50:52.843Z,100256.47
2022-12-29T17:53:55.443Z,100256.53
2022-12-29T17:56:57.880Z,100257.25
2022-12-29T18:00:00.150Z,100266.91
2022-12-29T18:03:02.652Z,100261.06
2022-12-29T18:06:08.462Z,100256.47
2022-12-29T18:09:11.214Z,100259.16
2022-12-29T18:12:39.499Z,100258.41
2022-12-29T18:15:41.697Z,100254.94
2022-12-29T18:18:44.486Z,100257.75
2022-12-29T18:21:46.555Z,100258.91
2022-12-29T18:24:49.055Z,100254.13
2022-12-29T18:27:51.478Z,100252.75
2022-12-29T18:30:56.157Z,100258.34
2022-12-29T18:34:01.429Z,100248.00
2022-12-29T18:37:04.149Z,100250.75
2022-12-29T18:40:07.161Z,100253.47
2022-12-29T18:43:13.973Z,100258.91
2022-12-29T18:46:22.332Z,100249.53
2022-12-29T18:49:26.164Z,100247.94
2022-12-29T18:52:28.915Z,100254.06
2022-12-29T18:55:31.090Z,100253.38
2022-12-29T18:58:34.344Z,100254.97
2022-12-29T19:01:36.815Z,100248.41
2022-12-29T19:04:39.235Z,100259.03
2022-12-29T19:07:41.424Z,100256.47
2022-12-29T19:10:45.252Z,100248.78
2022-12-29T19:13:47.995Z,100253.06
2022-12-29T19:16:50.450Z,100243.38
2022-12-29T19:19:53.163Z,100237.41
2022-12-29T19:22:57.127Z,100233.53
2022-12-29T19:25:59.198Z,100239.72
2022-12-29T19:29:02.615Z,100238.94
2022-12-29T19:32:05.100Z,100243.53
2022-12-29T19:35:09.167Z,100241.03
2022-12-29T19:38:13.470Z,100239.25
2022-12-29T19:41:16.342Z,100241.69
2022-12-29T19:44:22.692Z,100237.94
2022-12-29T19:47:30.079Z,100233.47
2022-12-29T19:50:34.444Z,100236.78
2022-12-29T19:53:37.704Z,100237.88
2022-12-29T19:56:43.368Z,100229.28
2022-12-29T19:59:47.337Z,100219.97
2022-12-29T20:02:49.575Z,100228.03
2022-12-29T20:05:52.724Z,100231.06
2022-12-29T20:08:55.820Z,100224.41
2022-12-29T20:11:58.281Z,100214.19
2022-12-29T20:15:01.339Z,100212.59
2022-12-29T20:18:14.239Z,100218.66
2022-12-29T20:21:19.922Z,100214.19
2022-12-29T20:24:22.258Z,100207.19
2022-12-29T20:27:24.562Z,100214.19
2022-12-29T20:30:26.928Z,100203.50
2022-12-29T20:33:31.171Z,100207.56
2022-12-29T20:36:35.436Z,100213.41
2022-12-29T20:39:40.348Z,100205.16
2022-12-29T20:42:42.503Z,100206.41
2022-12-29T20:45:45.040Z,100194.94
2022-12-29T20:48:47.388Z,100198.88
2022-12-29T20:52:05.792Z,100195.25
2022-12-29T20:55:09.092Z,100192.59
2022-12-29T20:58:23.507Z,100194.84
2022-12-29T21:01:26.640Z,100185.09
2022-12-29T21:04:43.693Z,100184.00
2022-12-29T21:07:51.206Z,100179.87
2022-12-29T21:10:54.104Z,100183.75
2022-12-29T21:14:00.744Z,100181.44
2022-12-29T21:17:03.348Z,100187.13
2022-12-29T21:20:06.000Z,100189.19
2022-12-29T21:23:08.270Z,100189.34
2022-12-29T21:26:12.134Z,100195.72
2022-12-29T21:29:14.437Z,100196.72
2022-12-29T21:32:17.161Z,100185.50
2022-12-29T21:35:19.313Z,100193.88
2022-12-29T21:38:21.339Z,100179.06
2022-12-29T21:41:23.448Z,100175.66
2022-12-29T21:44:44.762Z,100177.53
2022-12-29T21:48:05.382Z,100170.62
2022-12-29T21:51:32.133Z,100168.00
2022-12-29T21:54:52.988Z,100169.25
2022-12-29T21:58:13.688Z,100160.72
2022-12-29T22:01:34.240Z,100160.13
2022-12-29T22:04:54.951Z,100160.28
2022-12-29T22:08:16.058Z,100152.97
2022-12-29T22:11:36.745Z,100149.19
2022-12-29T22:14:38.851Z,100143.59
2022-12-29T22:17:48.498Z,100142.44
2022-12-29T22:20:51.737Z,100150.03
2022-12-29T22:23:54.186Z,100138.97
2022-12-29T22:26:56.210Z,100142.22
2022-12-29T22:29:58.381Z,100141.59
2022-12-29T22:33:01.750Z,100139.16
2022-12-29T22:36:04.478Z,100139.06
2022-12-29T22:39:06.474Z,100149.13
2022-12-29T22:42:09.173Z,100137.72
2022-12-29T22:45:11.548Z,100139.59
2022-12-29T22:48:14.514Z,100135.59
2022-12-29T22:51:16.770Z,100134.22
2022-12-29T22:54:19.911Z,100137.03
2022-12-29T22:57:22.035Z,100135.25
2022-12-29T23:00:24.128Z,100138.16
2022-12-29T23:03:26.703Z,100136.38
2022-12-29T23:06:29.067Z,100134.16
2022-12-29T23:09:31.691Z,100133.25
2022-12-29T23:12:34.118Z,100146.84
2022-12-29T23:15:36.262Z,100146.34
2022-12-29T23:18:38.674Z,100144.19
2022-12-29T23:21:41.127Z,100150.31
2022-12-29T23:24:43.269Z,100133.81
2022-12-29T23:27:45.331Z,100135.87
2022-12-29T23:30:47.471Z,100136.22
2022-12-29T23:33:50.398Z,100138.31
2022-12-29T23:36:52.888Z,100137.03
2022-12-29T23:39:55.028Z,100129.97
2022-12-29T23:42:57.131Z,100131.87
2022-12-29T23:46:04.935Z,100133.91
2022-12-29T23:49:09.465Z,100139.44
2022-12-29T23:52:11.839Z,100145.66
2022-12-29T23:55:13.966Z,100136.63
2022-12-29T23:58:16.295Z,100137.56
